Time;durP1;ratioP1;P1;durP2;ratioP2;P2;SDS_P1;SDS_P2;PMS_P1;PMS_P2;Temp;Humidity;BMP_temperature;BMP_pressure;BME280_temperature;BME280_humidity;BME280_pressure;Samples;Min_cycle;Max_cycle;Signal;HPM_P1;HPM_P2
2022/11/17 00:03:58;;;;;;;9.75;4.65;;;;;;;8.35;100.00;98725.88;10343116;28;20058;-86
2022/11/17 00:08:59;;;;;;;8.48;3.95;;;;;;;8.36;100.00;98691.16;10360515;28;20038;-93
2022/11/17 00:24:38;;;;;;;7.78;3.35;;;;;;;8.36;100.00;98686.84;10353426;28;20038;-91
2022/11/17 00:29:38;;;;;;;8.00;3.42;;;;;;;8.38;100.00;98664.28;10349608;28;20503;-91
2022/11/17 00:34:39;;;;;;;8.15;4.28;;;;;;;8.36;100.00;98657.25;10313045;28;20076;-91
2022/11/17 00:39:40;;;;;;;6.57;3.83;;;;;;;8.36;100.00;98633.81;10366096;28;20065;-94
2022/11/17 00:44:40;;;;;;;6.03;3.25;;;;;;;8.36;100.00;98629.50;10369405;28;20034;-88
2022/11/17 00:49:41;;;;;;;8.70;3.28;;;;;;;8.34;100.00;98615.53;10363834;28;20398;-90
2022/11/17 00:54:41;;;;;;;22.00;4.85;;;;;;;8.38;100.00;98611.25;10354556;28;20094;-94
2022/11/17 00:59:42;;;;;;;8.98;2.67;;;;;;;8.37;100.00;98579.13;10374748;28;20453;-94
2022/11/17 01:04:42;;;;;;;4.22;2.67;;;;;;;8.36;100.00;98593.00;10371083;28;20022;-95
2022/11/17 01:09:43;;;;;;;4.80;2.10;;;;;;;8.41;100.00;98589.59;10367545;28;20124;-88
2022/11/17 01:14:43;;;;;;;5.53;2.00;;;;;;;8.37;100.00;98586.94;10363910;28;20445;-82
2022/11/17 01:19:44;;;;;;;6.90;3.00;;;;;;;8.36;100.00;98600.81;10362656;28;20049;-86
2022/11/17 01:24:44;;;;;;;6.68;3.22;;;;;;;8.35;100.00;98588.63;10363418;28;20117;-89
2022/11/17 01:29:45;;;;;;;4.85;2.30;;;;;;;8.37;100.00;98581.72;10346656;28;20030;-90
2022/11/17 01:34:46;;;;;;;8.95;3.42;;;;;;;8.37;100.00;98566.09;10360712;28;20041;-86
2022/11/17 01:39:47;;;;;;;7.30;4.18;;;;;;;8.41;100.00;98546.16;10376446;28;20034;-89
2022/11/17 01:45:02;;;;;;;15.17;4.70;;;;;;;8.39;100.00;98542.63;10344564;28;20033;-94
2022/11/17 01:50:06;;;;;;;7.07;4.47;;;;;;;8.49;100.00;98546.34;10346190;28;20513;-85
2022/11/17 01:55:07;;;;;;;6.13;3.47;;;;;;;8.45;100.00;98527.13;10362275;28;20042;-86
2022/11/17 02:00:09;;;;;;;5.72;2.80;;;;;;;8.37;100.00;98515.66;10344041;28;20072;-85
2022/11/17 02:05:17;;;;;;;6.40;2.58;;;;;;;8.42;100.00;98521.84;10360047;28;20502;-87
2022/11/17 02:10:17;;;;;;;6.32;3.00;;;;;;;8.52;100.00;98521.19;10344248;28;20092;-87
2022/11/17 02:15:18;;;;;;;4.55;2.15;;;;;;;8.60;100.00;98513.53;10358671;28;20092;-84
2022/11/17 02:20:57;;;;;;;7.15;3.30;;;;;;;8.58;100.00;98510.03;10343271;28;20042;-87
2022/11/17 02:26:16;;;;;;;3.25;2.10;;;;;;;8.60;100.00;98499.59;10359165;28;20042;-87
2022/11/17 02:31:28;;;;;;;3.58;1.70;;;;;;;8.61;100.00;98485.72;10376622;28;20440;-86
2022/11/17 02:36:28;;;;;;;3.30;1.50;;;;;;;8.64;100.00;98480.56;10398804;28;20540;-87
2022/11/17 02:41:34;;;;;;;4.00;1.15;;;;;;;8.68;100.00;98484.09;10374480;28;20091;-84
2022/11/17 02:46:46;;;;;;;3.42;1.58;;;;;;;8.69;100.00;98483.25;10376657;28;20034;-94
2022/11/17 02:51:51;;;;;;;4.07;2.03;;;;;;;8.60;100.00;98489.16;10372294;28;20034;-96
2022/11/17 02:56:51;;;;;;;2.78;1.23;;;;;;;8.62;100.00;98470.13;10364287;28;20044;-96
2022/11/17 03:02:09;;;;;;;4.93;1.92;;;;;;;8.57;100.00;98479.59;10399794;28;20038;-94
2022/11/17 03:07:27;;;;;;;5.55;2.38;;;;;;;8.57;100.00;98476.09;10384076;28;20483;-93
2022/11/17 03:12:33;;;;;;;7.35;3.10;;;;;;;8.50;100.00;98455.13;10377329;28;20040;-89
2022/11/17 03:17:49;;;;;;;7.97;3.25;;;;;;;8.50;100.00;98439.47;10364852;28;20048;-88
2022/11/17 03:23:02;;;;;;;5.68;2.67;;;;;;;8.58;100.00;98433.50;10364669;28;20073;-87
2022/11/17 03:28:05;;;;;;;5.82;3.22;;;;;;;8.63;100.00;98417.09;10387663;28;20138;-87
2022/11/17 03:33:14;;;;;;;4.95;1.92;;;;;;;8.55;100.00;98403.06;10336955;28;20394;-87
2022/11/17 03:38:14;;;;;;;3.88;2.92;;;;;;;8.47;100.00;98392.47;10356318;28;20038;-87
2022/11/17 03:43:15;;;;;;;2.08;1.00;;;;;;;8.42;100.00;98381.09;10324412;28;20052;-87
2022/11/17 03:48:20;;;;;;;3.63;1.90;;;;;;;8.44;100.00;98378.53;10356526;28;20385;-86
2022/11/17 03:53:20;;;;;;;1.77;0.88;;;;;;;8.47;100.00;98369.00;10356413;28;20040;-87
2022/11/17 03:58:21;;;;;;;1.45;0.90;;;;;;;8.33;100.00;98370.50;10364433;28;20486;-84
2022/11/17 04:03:22;;;;;;;1.88;1.05;;;;;;;8.15;100.00;98356.31;10333333;28;20050;-92
2022/11/17 04:08:24;;;;;;;1.70;0.88;;;;;;;8.25;100.00;98356.47;10331896;28;20037;-88
2022/11/17 04:18:44;;;;;;;5.80;1.52;;;;;;;8.46;100.00;98354.22;10363715;28;20128;-87
2022/11/17 04:23:44;;;;;;;6.68;2.58;;;;;;;8.53;100.00;98355.25;10364177;28;20045;-94
2022/11/17 04:28:47;;;;;;;5.25;3.13;;;;;;;8.53;100.00;98350.03;10366841;28;20113;-91
2022/11/17 04:33:49;;;;;;;6.18;2.22;;;;;;;8.59;100.00;98344.00;10348930;28;20037;-90
2022/11/17 04:38:51;;;;;;;4.38;1.92;;;;;;;8.59;100.00;98350.13;10364077;28;20115;-93
2022/11/17 04:43:51;;;;;;;3.53;1.15;;;;;;;8.57;100.00;98328.38;10349093;28;20030;-87
2022/11/17 04:48:53;;;;;;;6.03;1.98;;;;;;;8.61;100.00;98330.16;10367898;28;20061;-92
2022/11/17 04:53:53;;;;;;;5.37;2.77;;;;;;;8.59;100.00;98324.06;10367991;28;20497;-91
2022/11/17 04:58:54;;;;;;;5.70;3.15;;;;;;;8.61;100.00;98321.44;10367921;28;20038;-91
2022/11/17 05:04:14;;;;;;;8.88;3.97;;;;;;;8.62;100.00;98316.28;10337391;28;20084;-90
2022/11/17 05:09:15;;;;;;;9.30;5.78;;;;;;;8.61;100.00;98317.13;10345967;28;20123;-89
2022/11/17 05:14:18;;;;;;;8.32;5.18;;;;;;;8.62;100.00;98329.31;10346401;28;20049;-91
2022/11/17 05:19:21;;;;;;;7.97;3.70;;;;;;;8.64;100.00;98339.75;10345767;28;20077;-89
2022/11/17 05:24:21;;;;;;;8.23;2.80;;;;;;;8.71;100.00;98351.16;10327675;28;20053;-84
2022/11/17 05:29:22;;;;;;;12.82;3.45;;;;;;;8.68;100.00;98370.22;10344742;28;20060;-88
2022/11/17 05:34:23;;;;;;;4.95;2.00;;;;;;;8.70;100.00;98368.53;10346189;28;20382;-89
2022/11/17 05:39:23;;;;;;;17.33;3.03;;;;;;;8.68;100.00;98366.75;10359812;28;20068;-87
2022/11/17 05:44:24;;;;;;;6.50;3.03;;;;;;;8.74;100.00;98375.53;10360296;28;20405;-85
2022/11/17 05:49:24;;;;;;;12.80;2.97;;;;;;;8.73;100.00;98386.81;10357361;28;20048;-84
2022/11/17 05:54:25;;;;;;;5.97;2.10;;;;;;;8.80;100.00;98378.25;10353747;28;20041;-85
2022/11/17 05:59:35;;;;;;;13.23;4.82;;;;;;;8.78;100.00;98379.94;10357631;28;20048;-87
2022/11/17 06:04:41;;;;;;;9.10;4.05;;;;;;;8.71;100.00;98377.25;10342457;28;20986;-83
2022/11/17 06:09:42;;;;;;;8.38;2.13;;;;;;;8.70;100.00;98378.09;10342596;28;20670;-89
2022/11/17 06:14:42;;;;;;;10.52;4.72;;;;;;;8.71;100.00;98380.72;10358956;28;20041;-85
2022/11/17 06:19:44;;;;;;;22.60;3.05;;;;;;;8.74;100.00;98379.91;10359872;28;20038;-89
2022/11/17 06:24:46;;;;;;;8.25;3.05;;;;;;;8.73;100.00;98381.59;10324709;28;20486;-85
2022/11/17 06:29:46;;;;;;;20.98;4.03;;;;;;;8.81;100.00;98382.59;10339209;28;20066;-87
2022/11/17 06:34:47;;;;;;;9.88;2.58;;;;;;;8.83;100.00;98387.84;10359752;28;20508;-91
2022/11/17 06:39:48;;;;;;;11.35;3.03;;;;;;;8.80;100.00;98395.63;10357897;28;20046;-87
2022/11/17 06:44:48;;;;;;;17.10;2.30;;;;;;;8.76;100.00;98401.66;10355198;28;20129;-94
2022/11/17 06:49:49;;;;;;;10.82;5.80;;;;;;;8.77;100.00;98406.88;10356670;28;20149;-89
2022/11/17 06:54:49;;;;;;;17.48;6.63;;;;;;;8.85;100.00;98403.50;10358249;28;20034;-87
2022/11/17 06:59:51;;;;;;;5.93;1.60;;;;;;;8.82;100.00;98405.22;10359706;28;20026;-83
2022/11/17 07:04:51;;;;;;;9.57;2.40;;;;;;;8.82;100.00;98412.19;10354578;28;20528;-82
2022/11/17 07:09:52;;;;;;;2.78;1.20;;;;;;;8.76;100.00;98427.75;10355295;28;20309;-81
2022/11/17 07:14:53;;;;;;;10.77;3.83;;;;;;;8.77;100.00;98438.19;10365805;28;20043;-85
2022/11/17 07:19:53;;;;;;;5.30;1.20;;;;;;;8.82;100.00;98438.25;10399074;28;20132;-90
2022/11/17 07:24:56;;;;;;;4.75;1.15;;;;;;;8.80;100.00;98446.03;10367654;28;20045;-87
2022/11/17 07:29:57;;;;;;;6.80;1.00;;;;;;;8.72;100.00;98452.88;10358834;28;20045;-89
2022/11/17 07:34:58;;;;;;;3.95;1.23;;;;;;;8.62;100.00;98469.22;10372371;28;20605;-84
2022/11/17 07:39:59;;;;;;;5.35;1.40;;;;;;;8.48;100.00;98476.78;10372562;28;20069;-84
2022/11/17 07:45:03;;;;;;;5.63;1.10;;;;;;;8.36;100.00;98487.84;10348123;28;20120;-83
2022/11/17 07:50:04;;;;;;;1.20;0.50;;;;;;;8.34;100.00;98493.06;10351704;28;20034;-84
2022/11/17 07:55:05;;;;;;;4.47;1.50;;;;;;;8.26;100.00;98504.16;10373432;28;20037;-90
2022/11/17 08:00:06;;;;;;;2.97;0.80;;;;;;;8.22;100.00;98511.06;10371173;28;20044;-91
2022/11/17 08:05:07;;;;;;;9.13;2.78;;;;;;;8.27;100.00;98524.16;10381540;28;20034;-85
2022/11/17 08:10:08;;;;;;;6.40;1.10;;;;;;;8.23;100.00;98521.50;10362470;28;20053;-91
2022/11/17 08:15:08;;;;;;;8.93;1.35;;;;;;;8.15;100.00;98528.28;10390857;28;20058;-92
2022/11/17 08:20:11;;;;;;;11.80;1.35;;;;;;;8.14;100.00;98531.75;10373477;28;20042;-93
2022/11/17 08:25:12;;;;;;;4.00;1.25;;;;;;;8.22;100.00;98526.69;10369929;28;20504;-86
2022/11/17 08:30:13;;;;;;;4.97;1.00;;;;;;;8.38;100.00;98520.94;10370346;28;20042;-87
2022/11/17 08:35:14;;;;;;;4.10;1.10;;;;;;;8.57;100.00;98529.13;10379493;28;20092;-92
2022/11/17 08:40:16;;;;;;;5.28;0.95;;;;;;;8.76;100.00;98530.31;10370843;28;20034;-90
2022/11/17 08:45:17;;;;;;;2.20;0.82;;;;;;;9.04;100.00;98519.47;10366452;28;20041;-87
2022/11/17 08:50:19;;;;;;;9.85;3.33;;;;;;;9.42;100.00;98520.91;10362442;28;20065;-89
2022/11/17 08:55:20;;;;;;;3.08;1.02;;;;;;;9.65;100.00;98524.72;10363631;28;20069;-88
2022/11/17 09:00:20;;;;;;;2.70;0.57;;;;;;;9.94;96.78;98528.59;10364878;28;20129;-87
2022/11/17 09:05:22;;;;;;;2.47;0.40;;;;;;;10.24;94.14;98533.28;10362310;28;20048;-86
2022/11/17 09:10:23;;;;;;;8.50;1.08;;;;;;;10.53;92.66;98531.91;10362448;28;20077;-85
2022/11/17 09:15:24;;;;;;;3.90;0.70;;;;;;;10.65;88.92;98532.03;10356578;28;20077;-87
2022/11/17 09:20:25;;;;;;;3.40;1.95;;;;;;;10.60;88.96;98540.69;10344915;28;20068;-85
2022/11/17 09:25:25;;;;;;;4.07;0.90;;;;;;;10.47;89.64;98551.00;10360036;28;20064;-88
2022/11/17 09:30:26;;;;;;;4.93;0.98;;;;;;;10.37;89.50;98555.25;10359287;28;20034;-85
2022/11/17 09:35:26;;;;;;;1.83;0.82;;;;;;;10.45;86.06;98557.97;10355118;28;20045;-85
2022/11/17 09:40:27;;;;;;;4.30;1.02;;;;;;;10.62;85.47;98566.00;10333130;28;20034;-86
2022/11/17 09:45:30;;;;;;;2.35;1.17;;;;;;;10.97;85.49;98570.72;10359812;28;20725;-83
2022/11/17 09:50:36;;;;;;;2.13;0.85;;;;;;;12.73;78.77;98574.31;10360025;28;20124;-86
2022/11/17 09:55:41;;;;;;;3.15;0.95;;;;;;;13.44;73.30;98581.44;10343221;28;20475;-86
2022/11/17 10:00:43;;;;;;;3.33;0.85;;;;;;;12.31;75.59;98593.44;10370754;28;20052;-85
2022/11/17 10:05:43;;;;;;;1.48;0.50;;;;;;;12.41;75.17;98609.22;10364732;28;20045;-84
2022/11/17 10:10:48;;;;;;;1.65;0.47;;;;;;;12.12;74.14;98600.38;10382453;28;20092;-84
2022/11/17 10:15:51;;;;;;;16.52;3.58;;;;;;;11.06;78.58;98617.00;10395826;28;20121;-88
2022/11/17 10:20:51;;;;;;;7.30;1.10;;;;;;;10.62;80.22;98620.94;10375257;28;20053;-90
2022/11/17 10:25:56;;;;;;;14.27;8.32;;;;;;;10.52;81.60;98627.78;10320048;28;20048;-88
2022/11/17 10:31:01;;;;;;;5.65;1.50;;;;;;;10.67;82.42;98637.56;10358060;28;20038;-86
2022/11/17 10:36:09;;;;;;;17.27;1.42;;;;;;;10.80;80.65;98653.41;10336224;28;20038;-81
2022/11/17 10:41:20;;;;;;;3.90;0.57;;;;;;;10.59;81.52;98644.44;10336826;28;20045;-81
2022/11/17 10:46:22;;;;;;;7.53;0.65;;;;;;;10.54;82.25;98652.22;10340457;28;20042;-80
2022/11/17 10:51:25;;;;;;;3.67;0.95;;;;;;;10.45;82.80;98656.47;10341663;28;20169;-80
2022/11/17 10:56:28;;;;;;;1.45;0.63;;;;;;;10.51;81.51;98659.16;10325567;28;20069;-80
2022/11/17 11:01:32;;;;;;;2.05;0.50;;;;;;;10.61;80.51;98599.97;10341589;28;20159;-85
2022/11/17 11:06:35;;;;;;;2.78;1.10;;;;;;;10.74;80.29;98667.28;10339771;28;20109;-80
2022/11/17 11:11:55;;;;;;;1.63;0.70;;;;;;;10.97;78.45;98662.31;10342635;28;20034;-82
2022/11/17 11:16:56;;;;;;;3.78;1.67;;;;;;;11.17;77.32;98653.78;10356073;28;20045;-81
2022/11/17 11:22:29;;;;;;;2.65;0.60;;;;;;;11.29;77.97;98666.09;10340639;28;20038;-81
2022/11/17 11:27:56;;;;;;;6.70;1.67;;;;;;;11.17;77.54;98672.13;10357418;28;20108;-84
2022/11/17 11:33:10;;;;;;;4.30;0.75;;;;;;;10.97;78.91;98682.34;10357526;28;20061;-86
2022/11/17 11:38:21;;;;;;;1.27;0.40;;;;;;;10.85;78.24;98686.59;10356596;28;20046;-83
2022/11/17 11:43:44;;;;;;;2.00;0.73;;;;;;;10.79;79.38;98685.66;10349220;28;20050;-83
2022/11/17 11:48:48;;;;;;;3.90;1.30;;;;;;;10.74;81.02;98687.34;10356241;28;20038;-89
2022/11/17 11:53:59;;;;;;;4.55;1.08;;;;;;;10.64;80.43;98687.22;10356020;28;20046;-89
2022/11/17 11:59:46;;;;;;;3.17;0.70;;;;;;;10.62;79.96;98695.91;10251968;28;20172;-87
2022/11/17 12:05:13;;;;;;;2.40;0.80;;;;;;;10.53;80.92;98699.28;10341169;28;20038;-84
2022/11/17 12:10:26;;;;;;;4.35;0.60;;;;;;;10.41;81.83;98715.69;10346454;28;20048;-87
2022/11/17 12:15:32;;;;;;;5.03;0.93;;;;;;;10.27;83.96;98715.47;10359875;28;20042;-87
2022/11/17 12:21:02;;;;;;;4.53;1.90;;;;;;;10.27;84.37;98712.84;10363674;28;20045;-84
2022/11/17 12:26:06;;;;;;;2.78;1.48;;;;;;;10.34;83.53;98719.03;10323167;28;20045;-83
2022/11/17 12:31:51;;;;;;;1.35;0.40;;;;;;;10.45;81.74;98712.25;10358072;28;20038;-80
2022/11/17 12:37:25;;;;;;;2.42;1.33;;;;;;;10.65;78.53;98714.25;10300008;28;20482;-83
2022/11/17 12:42:29;;;;;;;3.35;0.90;;;;;;;10.75;78.14;98720.50;10338643;28;20045;-82
2022/11/17 12:47:32;;;;;;;2.28;0.57;;;;;;;10.79;78.70;98717.91;10379992;28;20041;-83
2022/11/17 12:52:42;;;;;;;4.03;1.02;;;;;;;10.84;76.81;98731.94;10395282;28;20041;-81
2022/11/17 12:57:44;;;;;;;3.35;1.10;;;;;;;10.85;77.85;98727.59;10364516;28;20037;-82
2022/11/17 13:03:09;;;;;;;5.10;0.80;;;;;;;10.94;75.57;98735.56;10360377;28;20578;-81
2022/11/17 13:08:13;;;;;;;3.05;0.65;;;;;;;11.23;75.10;98739.34;10354355;28;20061;-82
2022/11/17 13:13:19;;;;;;;2.15;0.82;;;;;;;11.24;75.48;98739.38;10362882;28;20038;-81
2022/11/17 13:18:37;;;;;;;2.55;1.10;;;;;;;11.11;74.41;98740.97;10362881;28;20114;-81
2022/11/17 13:23:42;;;;;;;9.32;1.70;;;;;;;11.08;74.66;98738.31;10346054;28;20393;-80
2022/11/17 13:28:44;;;;;;;3.17;1.33;;;;;;;11.34;74.46;98742.09;10344932;28;20125;-80
2022/11/17 13:34:05;;;;;;;5.30;0.73;;;;;;;11.84;71.33;98746.06;10362659;28;20121;-80
2022/11/17 13:39:15;;;;;;;2.17;0.52;;;;;;;11.51;73.83;98750.13;10345310;28;20112;-81
2022/11/17 13:44:21;;;;;;;6.45;0.88;;;;;;;11.53;74.86;98751.91;10345748;28;20461;-81
2022/11/17 13:49:34;;;;;;;4.50;0.75;;;;;;;12.00;72.45;98755.84;10360708;28;20425;-81
2022/11/17 13:54:35;;;;;;;2.35;0.57;;;;;;;12.65;68.16;98750.16;10360604;28;20041;-82
2022/11/17 13:59:37;;;;;;;1.60;0.60;;;;;;;13.38;65.25;98752.19;10343962;28;20048;-81
2022/11/17 14:04:41;;;;;;;7.63;1.60;;;;;;;12.81;66.50;98760.72;10386482;28;20046;-81
2022/11/17 14:09:44;;;;;;;3.33;0.50;;;;;;;12.07;69.21;98774.22;10385053;28;20033;-80
2022/11/17 14:14:45;;;;;;;1.45;0.45;;;;;;;11.64;70.90;98775.56;10402645;28;20049;-80
2022/11/17 14:19:48;;;;;;;3.13;0.80;;;;;;;11.35;70.95;98773.53;10382504;28;20038;-81
2022/11/17 14:24:52;;;;;;;4.83;0.47;;;;;;;11.18;71.39;98775.09;10395375;28;20042;-86
2022/11/17 14:29:54;;;;;;;1.98;0.55;;;;;;;11.07;72.18;98773.22;10360239;28;20303;-81
2022/11/17 14:34:55;;;;;;;5.70;0.85;;;;;;;11.12;71.96;98789.84;10359309;28;20038;-82
2022/11/17 14:40:04;;;;;;;2.20;0.47;;;;;;;11.02;73.08;98786.25;10359309;28;20033;-82
2022/11/17 14:45:08;;;;;;;4.90;1.23;;;;;;;10.95;73.63;98776.56;10339981;28;20034;-81
2022/11/17 14:50:15;;;;;;;2.00;0.90;;;;;;;10.86;74.70;98794.78;10392982;28;20502;-79
2022/11/17 14:55:20;;;;;;;3.58;0.63;;;;;;;10.77;75.37;98805.97;10358505;28;20034;-85
2022/11/17 15:00:22;;;;;;;4.07;0.60;;;;;;;10.65;75.94;98811.03;10359609;28;20041;-85
2022/11/17 15:05:24;;;;;;;2.27;0.73;;;;;;;10.63;76.47;98810.16;10358005;28;20042;-85
2022/11/17 15:10:26;;;;;;;3.37;0.70;;;;;;;10.67;75.86;98818.06;10375095;28;20033;-85
2022/11/17 15:15:27;;;;;;;7.72;1.55;;;;;;;10.57;77.06;98810.94;10358435;28;20029;-85
2022/11/17 15:20:28;;;;;;;8.88;1.33;;;;;;;10.60;76.26;98816.22;10360069;28;20042;-85
2022/11/17 15:25:31;;;;;;;2.10;0.80;;;;;;;10.57;76.57;98824.91;10359068;28;20088;-85
2022/11/17 15:30:32;;;;;;;2.90;0.60;;;;;;;10.54;76.80;98837.94;10372133;28;20390;-85
2022/11/17 15:35:33;;;;;;;10.90;1.97;;;;;;;10.47;77.39;98828.22;10356193;28;20041;-85
2022/11/17 15:40:34;;;;;;;7.65;1.83;;;;;;;10.27;78.01;98839.22;10358142;28;20030;-85
2022/11/17 15:45:36;;;;;;;4.67;1.10;;;;;;;9.86;81.16;98842.00;10357451;28;20382;-85
2022/11/17 15:51:02;;;;;;;2.92;0.80;;;;;;;9.55;82.30;98868.44;10359495;28;20046;-85
2022/11/17 15:56:13;;;;;;;1.35;0.70;;;;;;;9.46;82.50;98864.75;10349132;28;20057;-85
2022/11/17 16:01:34;;;;;;;5.10;0.80;;;;;;;9.37;82.09;98863.72;10351062;28;20475;-81
2022/11/17 16:06:37;;;;;;;2.75;1.52;;;;;;;9.15;83.35;98871.94;10365364;28;20045;-84
2022/11/17 16:11:39;;;;;;;2.80;1.05;;;;;;;9.17;82.38;98886.81;10381689;28;20034;-81
2022/11/17 16:16:43;;;;;;;9.98;2.13;;;;;;;9.33;81.86;98882.78;10385155;28;20042;-87
2022/11/17 16:21:49;;;;;;;7.78;1.00;;;;;;;9.35;81.73;98888.03;10381232;28;20092;-86
2022/11/17 16:26:50;;;;;;;3.70;0.90;;;;;;;9.07;83.52;98890.06;10377490;28;20121;-82
2022/11/17 16:31:51;;;;;;;6.53;1.00;;;;;;;8.89;84.42;98887.91;10364243;28;20046;-82
2022/11/17 16:36:52;;;;;;;4.63;1.15;;;;;;;8.79;86.28;98898.13;10408941;28;20038;-88
2022/11/17 16:41:54;;;;;;;3.05;1.00;;;;;;;8.66;86.55;98903.91;10377901;28;20044;-87
2022/11/17 16:46:56;;;;;;;2.75;0.98;;;;;;;8.36;88.53;98907.50;10382528;28;20104;-87
2022/11/17 16:51:58;;;;;;;3.17;1.13;;;;;;;8.22;89.52;98915.84;10374935;28;20054;-87
2022/11/17 16:57:03;;;;;;;3.33;1.65;;;;;;;8.08;90.69;98912.00;10360673;28;20104;-81
2022/11/17 17:02:05;;;;;;;3.60;1.17;;;;;;;7.73;92.31;98912.84;10358778;28;20049;-81
2022/11/17 17:07:07;;;;;;;3.47;1.20;;;;;;;7.61;94.42;98922.91;10361667;28;20037;-82
2022/11/17 17:12:09;;;;;;;6.13;2.13;;;;;;;7.79;93.46;98923.41;10363851;28;20085;-81
2022/11/17 17:17:11;;;;;;;4.40;1.75;;;;;;;7.86;92.85;98929.66;10395222;28;20139;-81
2022/11/17 17:22:14;;;;;;;5.43;1.88;;;;;;;7.90;93.77;98928.91;10369154;28;20046;-81
2022/11/17 17:27:16;;;;;;;4.22;1.27;;;;;;;7.59;94.70;98930.66;10361329;28;20042;-81
2022/11/17 17:32:17;;;;;;;3.22;1.25;;;;;;;7.40;97.60;98946.56;10408468;28;20029;-80
2022/11/17 17:37:22;;;;;;;6.07;1.70;;;;;;;7.45;97.96;98939.78;10383151;28;20466;-81
2022/11/17 17:42:24;;;;;;;4.10;1.83;;;;;;;7.45;98.22;98945.00;10360256;28;20087;-81
2022/11/17 17:47:27;;;;;;;5.88;1.40;;;;;;;7.42;98.12;98942.28;10383622;28;20038;-81
2022/11/17 17:52:29;;;;;;;4.80;0.80;;;;;;;7.41;98.79;98959.66;10360059;28;20041;-81
2022/11/17 17:57:33;;;;;;;4.75;1.20;;;;;;;7.42;98.88;98978.75;10360451;28;20054;-81
2022/11/17 18:02:37;;;;;;;3.38;1.98;;;;;;;7.28;99.56;98987.00;10359186;28;20041;-82
2022/11/17 18:07:38;;;;;;;4.32;2.17;;;;;;;7.39;100.00;98996.88;10350452;28;20057;-81
2022/11/17 18:12:39;;;;;;;2.50;1.43;;;;;;;7.24;99.42;99002.50;10324414;28;20041;-80
2022/11/17 18:17:44;;;;;;;5.03;1.67;;;;;;;7.01;100.00;99006.13;10374114;28;20386;-80
2022/11/17 18:22:47;;;;;;;2.60;0.80;;;;;;;6.69;100.00;99010.28;10361011;28;20075;-80
2022/11/17 18:27:48;;;;;;;7.50;3.55;;;;;;;6.38;100.00;99015.31;10392428;28;20041;-80
2022/11/17 18:32:56;;;;;;;7.90;2.65;;;;;;;6.21;100.00;99024.22;10387948;28;20052;-80
2022/11/17 18:38:00;;;;;;;8.20;2.58;;;;;;;6.27;100.00;99027.03;10375290;28;20130;-85
2022/11/17 18:43:12;;;;;;;5.90;1.95;;;;;;;6.14;100.00;99033.53;10358119;28;20076;-83
2022/11/17 18:48:13;;;;;;;4.15;2.10;;;;;;;6.16;100.00;99037.94;10364523;28;20113;-83
2022/11/17 18:53:16;;;;;;;9.57;3.53;;;;;;;6.20;100.00;99053.63;10352995;28;20042;-80
2022/11/17 18:58:18;;;;;;;5.72;2.08;;;;;;;6.09;100.00;99061.91;10358715;28;20041;-85
2022/11/17 19:03:23;;;;;;;4.13;1.60;;;;;;;6.02;100.00;99062.53;10339121;28;20045;-82
2022/11/17 19:08:24;;;;;;;7.07;1.95;;;;;;;5.86;100.00;99071.44;10341515;28;20444;-83
2022/11/17 19:13:28;;;;;;;6.33;2.03;;;;;;;5.88;100.00;99080.16;10357160;28;20072;-81
2022/11/17 19:18:36;;;;;;;3.70;1.67;;;;;;;5.86;100.00;99082.69;10356865;28;20414;-77
2022/11/17 19:23:40;;;;;;;6.85;2.45;;;;;;;5.71;100.00;99087.28;10356143;28;20044;-82
2022/11/17 19:28:41;;;;;;;3.53;1.58;;;;;;;5.72;100.00;99091.66;10353686;28;20038;-79
2022/11/17 19:33:43;;;;;;;15.97;2.80;;;;;;;5.71;100.00;99095.97;10337222;28;20045;-86
2022/11/17 19:38:49;;;;;;;6.13;2.20;;;;;;;5.69;100.00;99104.53;10351771;28;20049;-80
2022/11/17 19:44:24;;;;;;;18.65;5.18;;;;;;;5.52;100.00;99096.97;10350694;28;20183;-78
2022/11/17 19:49:29;;;;;;;8.13;2.88;;;;;;;5.55;100.00;99102.28;10364410;28;20390;-79
2022/11/17 19:54:35;;;;;;;5.00;2.38;;;;;;;5.44;100.00;99104.47;10348629;28;20073;-80
2022/11/17 19:59:37;;;;;;;8.20;2.53;;;;;;;5.34;100.00;99120.47;10353188;28;20045;-80
2022/11/17 20:04:38;;;;;;;6.10;2.38;;;;;;;5.19;100.00;99119.84;10357691;28;20061;-77
2022/11/17 20:09:38;;;;;;;10.57;3.35;;;;;;;5.08;100.00;99128.06;10341302;28;20049;-78
2022/11/17 20:14:39;;;;;;;13.93;3.47;;;;;;;5.10;100.00;99136.81;10357828;28;20056;-84
2022/11/17 20:19:39;;;;;;;7.50;3.72;;;;;;;5.13;100.00;99138.63;10353191;28;20042;-82
2022/11/17 20:24:40;;;;;;;9.15;3.17;;;;;;;5.05;100.00;99147.78;10353876;28;20092;-82
2022/11/17 20:29:40;;;;;;;11.35;3.13;;;;;;;5.05;100.00;99156.47;10353059;28;20069;-82
2022/11/17 20:34:41;;;;;;;9.73;4.60;;;;;;;5.23;100.00;99164.13;10337571;28;20125;-82
2022/11/17 20:39:41;;;;;;;8.77;4.20;;;;;;;5.32;100.00;99171.41;10358762;28;20061;-81
2022/11/17 20:44:43;;;;;;;9.25;3.70;;;;;;;5.37;100.00;99176.78;10360149;28;20433;-83
2022/11/17 20:49:43;;;;;;;8.48;3.45;;;;;;;5.51;100.00;99178.22;10360992;28;20413;-81
2022/11/17 20:54:44;;;;;;;6.20;3.35;;;;;;;5.48;100.00;99185.03;10361320;28;20073;-82
2022/11/17 20:59:44;;;;;;;11.18;3.97;;;;;;;5.36;100.00;99185.38;10359281;28;20476;-81
2022/11/17 21:04:45;;;;;;;10.40;4.82;;;;;;;5.26;100.00;99184.13;10359001;28;20042;-81
2022/11/17 21:09:45;;;;;;;13.45;4.28;;;;;;;5.24;100.00;99199.63;10361729;28;20060;-81
2022/11/17 21:14:46;;;;;;;8.05;3.75;;;;;;;5.44;100.00;99212.53;10362946;28;20050;-81
2022/11/17 21:19:46;;;;;;;21.88;5.88;;;;;;;5.58;100.00;99202.75;10363349;28;20382;-81
2022/11/17 21:24:47;;;;;;;9.48;3.67;;;;;;;5.59;100.00;99217.50;10363400;28;20226;-81
2022/11/17 21:29:47;;;;;;;9.20;3.92;;;;;;;5.33;100.00;99214.69;10362906;28;20034;-81
2022/11/17 21:34:48;;;;;;;10.27;2.97;;;;;;;5.19;100.00;99210.63;10362585;28;20161;-81
2022/11/17 21:39:49;;;;;;;8.30;3.63;;;;;;;5.16;100.00;99215.69;10361589;28;20133;-81
2022/11/17 21:44:49;;;;;;;10.88;3.95;;;;;;;4.97;100.00;99220.09;10364148;28;20042;-80
2022/11/17 21:49:50;;;;;;;15.70;4.40;;;;;;;4.93;100.00;99234.59;10362916;28;20121;-80
2022/11/17 21:54:50;;;;;;;12.52;5.15;;;;;;;4.91;100.00;99235.38;10360950;28;20046;-80
2022/11/17 21:59:51;;;;;;;8.90;4.10;;;;;;;4.83;100.00;99240.19;10363623;28;20117;-79
2022/11/17 22:04:51;;;;;;;10.45;5.05;;;;;;;4.73;100.00;99249.28;10363030;28;20040;-80
2022/11/17 22:09:53;;;;;;;9.55;3.67;;;;;;;4.67;100.00;99256.78;10360971;28;20046;-81
2022/11/17 22:14:54;;;;;;;35.72;7.03;;;;;;;4.85;100.00;99255.00;10334957;28;20042;-81
2022/11/17 22:19:54;;;;;;;9.20;4.00;;;;;;;5.07;100.00;99261.16;10361957;28;20084;-80
2022/11/17 22:24:55;;;;;;;27.58;5.55;;;;;;;5.21;100.00;99251.38;10362310;28;20034;-81
2022/11/17 22:29:55;;;;;;;15.50;5.30;;;;;;;5.36;100.00;99263.22;10360655;28;20060;-81
2022/11/17 22:35:00;;;;;;;10.38;4.45;;;;;;;5.59;100.00;99266.81;10361312;28;20045;-81
2022/11/17 22:40:00;;;;;;;11.32;4.18;;;;;;;5.76;100.00;99270.09;10361504;28;20117;-81
2022/11/17 22:45:01;;;;;;;10.15;4.07;;;;;;;5.87;100.00;99286.13;10360946;28;20042;-81
2022/11/17 22:50:01;;;;;;;12.20;5.28;;;;;;;5.91;100.00;99290.63;10360435;28;20065;-81
2022/11/17 22:55:02;;;;;;;13.23;4.05;;;;;;;5.98;100.00;99290.03;10360341;28;20125;-80
2022/11/17 23:00:04;;;;;;;13.65;5.35;;;;;;;6.14;100.00;99294.16;10359835;28;20095;-81
2022/11/17 23:05:04;;;;;;;;;;;;;;;6.23;100.00;99300.56;10359516;28;20120;-80
2022/11/17 23:10:05;;;;;;;10.27;5.07;;;;;;;6.32;100.00;99303.50;10361105;28;19935;-81
2022/11/17 23:15:06;;;;;;;17.15;5.15;;;;;;;6.27;100.00;99310.25;10360068;28;20045;-82
2022/11/17 23:20:08;;;;;;;13.07;3.53;;;;;;;6.24;100.00;99313.63;10357812;28;20769;-81
2022/11/17 23:25:08;;;;;;;14.97;4.47;;;;;;;6.15;100.00;99313.25;10359321;28;20058;-81
2022/11/17 23:30:09;;;;;;;15.13;4.20;;;;;;;6.16;100.00;99321.09;10360284;28;20135;-82
2022/11/17 23:35:10;;;;;;;8.25;3.17;;;;;;;6.26;100.00;99324.06;10358761;28;20053;-82
2022/11/17 23:40:10;;;;;;;18.67;3.63;;;;;;;6.22;100.00;99328.25;10359243;28;20037;-81
2022/11/17 23:45:11;;;;;;;9.00;3.42;;;;;;;6.38;100.00;99332.34;10358881;28;20088;-81
2022/11/17 23:50:12;;;;;;;10.55;3.25;;;;;;;6.46;100.00;99330.94;10358631;28;20092;-81